Time;durP1;ratioP1;P1;durP2;ratioP2;P2;SDS_P1;SDS_P2;PMS_P1;PMS_P2;Temp;Humidity;BMP_temperature;BMP_pressure;BME280_temperature;BME280_humidity;BME280_pressure;Samples;Min_cycle;Max_cycle;Signal;HPM_P1;HPM_P2
2022/01/10 00:00:34;;;;;;;;;;;22.90;26.10;;;;;;5126791;28;20389;-49
2022/01/10 00:02:59;;;;;;;;;;;23.00;26.00;;;;;;5121395;28;19974;-48
2022/01/10 00:05:25;;;;;;;;;;;23.00;26.00;;;;;;5100250;28;20289;-48
2022/01/10 00:07:51;;;;;;;;;;;22.90;26.10;;;;;;5126419;28;19927;-50
2022/01/10 00:10:17;;;;;;;;;;;23.00;26.00;;;;;;5120824;28;19927;-52
2022/01/10 00:12:43;;;;;;;;;;;23.00;25.90;;;;;;5126218;28;20374;-54
2022/01/10 00:15:09;;;;;;;;;;;23.00;25.90;;;;;;5102664;28;19946;-50
2022/01/10 00:17:37;;;;;;;;;;;23.00;25.90;;;;;;5121202;27;19930;-50
2022/01/10 00:20:07;;;;;;;;;;;23.00;25.80;;;;;;5108372;28;20002;-49
2022/01/10 00:22:33;;;;;;;;;;;23.00;26.00;;;;;;5119966;28;20298;-50
2022/01/10 00:24:59;;;;;;;;;;;23.10;25.90;;;;;;5119500;28;20022;-48
2022/01/10 00:27:24;;;;;;;;;;;23.00;26.00;;;;;;5126014;28;19971;-48
2022/01/10 00:29:50;;;;;;;;;;;23.00;26.00;;;;;;5120301;28;20035;-49
2022/01/10 00:32:17;;;;;;;;;;;23.00;26.00;;;;;;5120833;28;19934;-56
2022/01/10 00:34:43;;;;;;;;;;;23.00;26.10;;;;;;5125958;28;19945;-48
2022/01/10 00:37:09;;;;;;;;;;;23.00;26.10;;;;;;5120642;28;20398;-49
2022/01/10 00:39:35;;;;;;;;;;;23.00;26.10;;;;;;5126062;28;19954;-49
2022/01/10 00:42:00;;;;;;;;;;;23.00;26.00;;;;;;5118471;28;19979;-49
2022/01/10 00:44:30;;;;;;;;;;;23.00;26.00;;;;;;5120496;28;19984;-48
2022/01/10 00:46:56;;;;;;;;;;;23.10;25.80;;;;;;5125941;28;20018;-48
2022/01/10 00:49:22;;;;;;;;;;;23.10;25.80;;;;;;5120159;28;20405;-44
2022/01/10 00:51:48;;;;;;;;;;;23.10;25.70;;;;;;5120279;28;19923;-46
2022/01/10 00:54:14;;;;;;;;;;;23.20;25.60;;;;;;5125860;28;20393;-52
2022/01/10 00:56:39;;;;;;;;;;;23.10;25.60;;;;;;5120418;28;19946;-48
2022/01/10 00:59:05;;;;;;;;;;;23.00;25.50;;;;;;5125576;28;19978;-48
2022/01/10 01:01:31;;;;;;;;;;;23.00;25.60;;;;;;5118547;28;19985;-48
2022/01/10 01:03:57;;;;;;;;;;;23.00;25.70;;;;;;5120295;28;19932;-46
2022/01/10 01:06:23;;;;;;;;;;;22.90;25.70;;;;;;5125489;28;19924;-50
2022/01/10 01:08:48;;;;;;;;;;;22.80;25.90;;;;;;5120020;28;19930;-47
2022/01/10 01:11:40;;;;;;;;;;;22.90;25.80;;;;;;5120007;28;19989;-46
2022/01/10 01:14:07;;;;;;;;;;;22.90;25.90;;;;;;5125333;28;19930;-46
2022/01/10 01:19:25;;;;;;;;;;;23.00;25.80;;;;;;5117717;28;19939;-47
2022/01/10 01:24:33;;;;;;;;;;;22.90;25.80;;;;;;5120031;28;19931;-47
2022/01/10 01:26:58;;;;;;;;;;;23.00;25.70;;;;;;5119797;28;19972;-47
2022/01/10 01:29:28;;;;;;;;;;;23.00;25.70;;;;;;5126475;27;19923;-45
2022/01/10 01:31:54;;;;;;;;;;;23.00;25.70;;;;;;5123654;28;19957;-46
2022/01/10 01:34:20;;;;;;;;;;;23.00;25.70;;;;;;5123324;28;19923;-48
2022/01/10 01:36:49;;;;;;;;;;;22.90;25.90;;;;;;5127272;28;20305;-46
2022/01/10 01:39:19;;;;;;;;;;;23.10;25.80;;;;;;5122819;28;20310;-45
2022/01/10 01:41:45;;;;;;;;;;;23.10;25.70;;;;;;5128874;28;19930;-46
2022/01/10 01:44:11;;;;;;;;;;;23.10;25.80;;;;;;5123733;28;19923;-44
2022/01/10 01:46:37;;;;;;;;;;;23.20;25.70;;;;;;5122926;28;19930;-44
2022/01/10 01:49:03;;;;;;;;;;;23.10;25.90;;;;;;5128583;28;19930;-45
2022/01/10 01:51:29;;;;;;;;;;;23.10;25.90;;;;;;5122948;28;19948;-45
2022/01/10 01:53:55;;;;;;;;;;;23.20;25.90;;;;;;5123070;28;20043;-46
2022/01/10 01:56:21;;;;;;;;;;;23.30;25.80;;;;;;5126380;28;19927;-47
2022/01/10 01:58:47;;;;;;;;;;;23.20;25.90;;;;;;5122960;28;20451;-46
2022/01/10 02:01:16;;;;;;;;;;;23.10;26.10;;;;;;5126251;28;19930;-54
2022/01/10 02:03:42;;;;;;;;;;;23.00;26.10;;;;;;5126699;28;20444;-45
2022/01/10 02:06:08;;;;;;;;;;;23.10;26.10;;;;;;5122726;28;20024;-46
2022/01/10 02:08:34;;;;;;;;;;;23.10;26.10;;;;;;5128440;28;19923;-46
2022/01/10 02:10:59;;;;;;;;;;;23.20;26.00;;;;;;5123119;28;19927;-46
2022/01/10 02:13:26;;;;;;;;;;;23.10;26.00;;;;;;5121772;28;19927;-45
2022/01/10 02:15:58;;;;;;;;;;;23.20;25.90;;;;;;5127170;28;20022;-45
2022/01/10 02:18:24;;;;;;;;;;;23.20;25.80;;;;;;5088650;28;19938;-47
2022/01/10 02:20:50;;;;;;;;;;;23.10;25.90;;;;;;5122481;28;19931;-45
2022/01/10 02:23:16;;;;;;;;;;;23.20;25.90;;;;;;5127932;28;19927;-46
2022/01/10 02:25:42;;;;;;;;;;;23.10;26.00;;;;;;5118601;28;20353;-48
2022/01/10 02:28:08;;;;;;;;;;;23.00;26.10;;;;;;5128004;28;19931;-46
2022/01/10 02:30:34;;;;;;;;;;;23.10;26.10;;;;;;5122721;28;20011;-47
2022/01/10 02:33:01;;;;;;;;;;;23.00;26.10;;;;;;5120459;28;20054;-45
2022/01/10 02:35:38;;;;;;;;;;;23.00;26.10;;;;;;5109567;28;19936;-44
2022/01/10 02:38:04;;;;;;;;;;;23.10;26.00;;;;;;5122325;28;19930;-45
2022/01/10 02:40:32;;;;;;;;;;;23.10;26.10;;;;;;5121247;27;19923;-45
2022/01/10 02:42:58;;;;;;;;;;;23.20;26.00;;;;;;5127371;28;19934;-51
2022/01/10 02:45:24;;;;;;;;;;;23.00;26.20;;;;;;5122419;28;20201;-52
2022/01/10 02:47:50;;;;;;;;;;;22.90;26.40;;;;;;5122186;28;19978;-50
2022/01/10 02:50:16;;;;;;;;;;;22.80;26.50;;;;;;5126923;28;19927;-52
2022/01/10 02:52:42;;;;;;;;;;;22.80;26.50;;;;;;5120502;28;19927;-49
2022/01/10 02:55:08;;;;;;;;;;;22.80;26.50;;;;;;5127481;28;20371;-52
2022/01/10 02:57:34;;;;;;;;;;;22.80;26.60;;;;;;5121857;28;19923;-51
2022/01/10 03:00:00;;;;;;;;;;;22.80;26.50;;;;;;5121811;28;19923;-48
2022/01/10 03:02:31;;;;;;;;;;;22.80;26.40;;;;;;5127371;28;20068;-49
2022/01/10 03:04:56;;;;;;;;;;;22.80;26.40;;;;;;5122374;28;19931;-50
2022/01/10 03:07:23;;;;;;;;;;;22.80;26.50;;;;;;5122068;28;20481;-50
2022/01/10 03:09:49;;;;;;;;;;;22.80;26.40;;;;;;5125353;28;20305;-50
2022/01/10 03:12:15;;;;;;;;;;;22.80;26.50;;;;;;5121798;28;20361;-50
2022/01/10 03:14:41;;;;;;;;;;;22.90;26.50;;;;;;5126999;28;20002;-54
2022/01/10 03:17:08;;;;;;;;;;;22.80;26.50;;;;;;5122095;28;20114;-49
2022/01/10 03:19:34;;;;;;;;;;;22.90;26.30;;;;;;5121606;28;19946;-49
2022/01/10 03:22:00;;;;;;;;;;;22.90;26.40;;;;;;5127376;28;19924;-49
2022/01/10 03:24:26;;;;;;;;;;;22.90;26.50;;;;;;5121687;28;19923;-48
2022/01/10 03:26:52;;;;;;;;;;;22.90;26.40;;;;;;5121338;28;19942;-52
2022/01/10 03:29:18;;;;;;;;;;;22.90;26.40;;;;;;5125093;28;19934;-49
2022/01/10 03:31:44;;;;;;;;;;;23.00;26.30;;;;;;5121447;28;19930;-48
2022/01/10 03:34:12;;;;;;;;;;;23.00;26.30;;;;;;5123571;28;19927;-56
2022/01/10 03:36:39;;;;;;;;;;;22.90;26.40;;;;;;5126252;28;19924;-49
2022/01/10 03:39:04;;;;;;;;;;;23.00;26.30;;;;;;5121549;28;20010;-47
2022/01/10 03:41:30;;;;;;;;;;;22.90;26.50;;;;;;5127134;28;20303;-48
2022/01/10 03:43:56;;;;;;;;;;;22.90;26.50;;;;;;5121649;28;19924;-52
2022/01/10 03:46:22;;;;;;;;;;;23.00;26.40;;;;;;5119605;28;20267;-49
2022/01/10 03:48:47;;;;;;;;;;;23.00;26.30;;;;;;5108188;28;19930;-47
2022/01/10 03:51:13;;;;;;;;;;;22.90;26.40;;;;;;5121147;28;19927;-48
2022/01/10 03:53:39;;;;;;;;;;;23.00;26.20;;;;;;5120830;27;19927;-53
2022/01/10 03:56:05;;;;;;;;;;;23.00;26.10;;;;;;5126533;28;20375;-50
2022/01/10 03:58:31;;;;;;;;;;;23.10;26.00;;;;;;5121386;28;20895;-51
2022/01/10 04:00:57;;;;;;;;;;;23.00;26.10;;;;;;5126539;28;19925;-50
2022/01/10 04:03:23;;;;;;;;;;;23.10;25.90;;;;;;5121224;28;19924;-46
2022/01/10 04:05:49;;;;;;;;;;;23.20;25.90;;;;;;5119177;28;20294;-45
2022/01/10 04:08:15;;;;;;;;;;;23.20;25.90;;;;;;5126448;28;19924;-43
2022/01/10 04:10:40;;;;;;;;;;;23.20;25.80;;;;;;5120906;28;20359;-47
2022/01/10 04:13:06;;;;;;;;;;;23.20;25.80;;;;;;5102429;28;19923;-51
2022/01/10 04:15:32;;;;;;;;;;;23.20;25.70;;;;;;5126026;28;19927;-54
2022/01/10 04:18:00;;;;;;;;;;;22.90;26.00;;;;;;5120999;28;19923;-51
2022/01/10 04:20:26;;;;;;;;;;;22.90;26.00;;;;;;5126331;28;19927;-50
2022/01/10 04:22:51;;;;;;;;;;;22.90;25.90;;;;;;5119650;28;19923;-53
2022/01/10 04:25:17;;;;;;;;;;;22.80;25.90;;;;;;5119658;28;19951;-49
2022/01/10 04:27:43;;;;;;;;;;;22.80;25.90;;;;;;5126342;28;19939;-51
2022/01/10 04:30:10;;;;;;;;;;;22.90;25.80;;;;;;5120761;28;20235;-52
2022/01/10 04:32:36;;;;;;;;;;;22.90;25.80;;;;;;5120254;28;20114;-49
2022/01/10 04:35:02;;;;;;;;;;;22.90;25.80;;;;;;5125984;28;19924;-49
2022/01/10 04:37:28;;;;;;;;;;;22.90;25.80;;;;;;5120855;28;19946;-49
2022/01/10 04:39:54;;;;;;;;;;;22.80;25.80;;;;;;5125409;28;19962;-58
2022/01/10 04:42:19;;;;;;;;;;;22.90;25.80;;;;;;5119530;28;19935;-50
2022/01/10 04:44:45;;;;;;;;;;;23.00;25.70;;;;;;5120525;28;19981;-50
2022/01/10 04:47:11;;;;;;;;;;;23.00;25.70;;;;;;5125911;28;19935;-52
2022/01/10 04:52:29;;;;;;;;;;;23.00;25.70;;;;;;5081073;28;19980;-51
2022/01/10 04:54:54;;;;;;;;;;;23.00;25.60;;;;;;5126068;28;19934;-51
2022/01/10 04:57:20;;;;;;;;;;;23.00;25.60;;;;;;5120210;28;19924;-49
2022/01/10 04:59:46;;;;;;;;;;;23.00;25.60;;;;;;5119595;28;19934;-49
2022/01/10 05:02:12;;;;;;;;;;;23.10;25.60;;;;;;5124405;28;19934;-48
2022/01/10 05:04:37;;;;;;;;;;;23.10;25.60;;;;;;5121898;27;19971;-48
2022/01/10 05:07:03;;;;;;;;;;;23.10;25.60;;;;;;5126985;28;19946;-55
2022/01/10 05:09:29;;;;;;;;;;;23.20;25.60;;;;;;5126328;28;19931;-46
2022/01/10 05:11:55;;;;;;;;;;;23.10;25.70;;;;;;5123848;28;19923;-45
2022/01/10 05:14:21;;;;;;;;;;;23.30;25.60;;;;;;5129424;28;19928;-49
2022/01/10 05:16:47;;;;;;;;;;;23.20;25.60;;;;;;5124111;28;19923;-56
2022/01/10 05:19:12;;;;;;;;;;;22.80;26.00;;;;;;5121587;28;20395;-51
2022/01/10 05:21:38;;;;;;;;;;;22.70;26.20;;;;;;5128985;28;20026;-50
2022/01/10 05:24:04;;;;;;;;;;;22.80;26.20;;;;;;5105260;28;19976;-51
2022/01/10 05:26:30;;;;;;;;;;;22.80;26.10;;;;;;5124535;28;19930;-58
2022/01/10 05:28:56;;;;;;;;;;;22.80;26.20;;;;;;5128390;28;19927;-49
2022/01/10 05:31:22;;;;;;;;;;;22.70;26.20;;;;;;5123452;28;19971;-48
2022/01/10 05:33:48;;;;;;;;;;;22.80;26.10;;;;;;5128734;28;20014;-49
2022/01/10 05:36:14;;;;;;;;;;;22.80;26.10;;;;;;5123367;28;19934;-50
2022/01/10 05:38:40;;;;;;;;;;;22.80;26.10;;;;;;5121436;28;20375;-50
2022/01/10 05:41:05;;;;;;;;;;;22.70;26.10;;;;;;5128838;28;19923;-50
2022/01/10 05:43:31;;;;;;;;;;;22.80;26.10;;;;;;5123147;28;19930;-49
2022/01/10 05:45:57;;;;;;;;;;;22.80;26.10;;;;;;5123065;28;19977;-52
2022/01/10 05:48:29;;;;;;;;;;;22.70;26.20;;;;;;5128706;28;19924;-50
2022/01/10 05:50:54;;;;;;;;;;;22.80;26.10;;;;;;5104817;28;19934;-47
2022/01/10 05:53:20;;;;;;;;;;;22.80;26.00;;;;;;5128655;28;20418;-49
2022/01/10 05:55:46;;;;;;;;;;;22.80;26.00;;;;;;5121604;28;19923;-50
2022/01/10 05:58:12;;;;;;;;;;;22.90;26.00;;;;;;5123042;28;19931;-48
2022/01/10 06:00:38;;;;;;;;;;;22.90;26.00;;;;;;5128557;28;20367;-49
2022/01/10 06:03:03;;;;;;;;;;;22.90;26.10;;;;;;5122812;28;19946;-49
2022/01/10 06:05:31;;;;;;;;;;;22.80;26.00;;;;;;5104338;28;20307;-51
2022/01/10 06:08:01;;;;;;;;;;;22.80;26.10;;;;;;5128618;28;20373;-49
2022/01/10 06:10:26;;;;;;;;;;;22.90;26.10;;;;;;5122934;28;19953;-48
2022/01/10 06:12:52;;;;;;;;;;;22.90;26.10;;;;;;5126354;28;19924;-56
2022/01/10 06:15:18;;;;;;;;;;;22.80;26.10;;;;;;5122970;27;19923;-47
2022/01/10 06:17:44;;;;;;;;;;;22.90;26.00;;;;;;5103759;28;19942;-50
2022/01/10 06:20:10;;;;;;;;;;;22.90;26.10;;;;;;5128018;28;19923;-49
2022/01/10 06:22:36;;;;;;;;;;;22.90;26.10;;;;;;5122677;28;19923;-49
2022/01/10 06:25:02;;;;;;;;;;;22.80;26.10;;;;;;5122573;28;19927;-47
2022/01/10 06:27:28;;;;;;;;;;;23.00;26.00;;;;;;5128486;28;20895;-50
2022/01/10 06:29:54;;;;;;;;;;;23.10;25.80;;;;;;5122542;28;19980;-49
2022/01/10 06:32:19;;;;;;;;;;;23.00;26.00;;;;;;5122580;28;19975;-56
2022/01/10 06:34:45;;;;;;;;;;;22.90;26.00;;;;;;5126171;28;19931;-50
2022/01/10 06:37:11;;;;;;;;;;;22.90;26.00;;;;;;5122566;28;19968;-48
2022/01/10 06:39:37;;;;;;;;;;;22.90;26.00;;;;;;5127705;28;19923;-49
2022/01/10 06:42:03;;;;;;;;;;;22.80;26.10;;;;;;5122162;28;19963;-49
2022/01/10 06:44:29;;;;;;;;;;;22.90;26.00;;;;;;5122133;28;19961;-47
2022/01/10 06:46:55;;;;;;;;;;;23.00;26.00;;;;;;5127939;28;20374;-47
2022/01/10 06:49:21;;;;;;;;;;;22.90;26.10;;;;;;5122354;28;19924;-50
2022/01/10 06:51:46;;;;;;;;;;;23.00;26.00;;;;;;5120241;28;19924;-50
2022/01/10 06:54:12;;;;;;;;;;;22.90;26.10;;;;;;5109480;28;19924;-49
2022/01/10 06:56:38;;;;;;;;;;;22.80;26.10;;;;;;5122182;28;19924;-52
2022/01/10 06:59:04;;;;;;;;;;;22.90;26.00;;;;;;5127377;28;19927;-50
2022/01/10 07:01:29;;;;;;;;;;;23.00;26.00;;;;;;5121552;28;19928;-52
2022/01/10 07:03:57;;;;;;;;;;;23.00;26.00;;;;;;5122040;28;20246;-48
2022/01/10 07:06:23;;;;;;;;;;;23.00;26.00;;;;;;5127537;28;20018;-50
2022/01/10 07:08:49;;;;;;;;;;;23.00;26.00;;;;;;5103812;28;19932;-49
2022/01/10 07:11:15;;;;;;;;;;;23.00;26.00;;;;;;5120033;28;20322;-49
2022/01/10 07:13:40;;;;;;;;;;;23.00;26.00;;;;;;5127210;28;19923;-48
2022/01/10 07:16:06;;;;;;;;;;;23.00;26.10;;;;;;5121725;28;19931;-50
2022/01/10 07:18:32;;;;;;;;;;;23.00;26.10;;;;;;5107884;28;19970;-49
2022/01/10 07:20:58;;;;;;;;;;;23.10;25.90;;;;;;5121690;28;20305;-48
2022/01/10 07:23:24;;;;;;;;;;;23.20;25.80;;;;;;5122057;28;19930;-47
2022/01/10 07:25:50;;;;;;;;;;;23.20;25.80;;;;;;5127521;28;20298;-51
2022/01/10 07:28:15;;;;;;;;;;;22.90;26.10;;;;;;5119091;27;20298;-55
2022/01/10 07:30:41;;;;;;;;;;;22.70;26.30;;;;;;5121617;28;19935;-51
2022/01/10 07:33:07;;;;;;;;;;;22.70;26.30;;;;;;5127070;28;19923;-54
2022/01/10 07:35:33;;;;;;;;;;;22.70;26.30;;;;;;5102981;28;19930;-49
2022/01/10 07:37:58;;;;;;;;;;;22.70;26.30;;;;;;5126598;28;19927;-53
2022/01/10 07:40:24;;;;;;;;;;;22.80;26.20;;;;;;5122255;28;20322;-48
2022/01/10 07:42:50;;;;;;;;;;;22.80;26.20;;;;;;5121730;28;19923;-49
2022/01/10 07:45:16;;;;;;;;;;;22.80;26.00;;;;;;5127124;28;19947;-47
2022/01/10 07:47:42;;;;;;;;;;;22.80;26.10;;;;;;5119393;28;19931;-48
2022/01/10 07:50:08;;;;;;;;;;;22.80;26.10;;;;;;5103163;28;20004;-50
2022/01/10 07:52:33;;;;;;;;;;;22.90;26.00;;;;;;5126795;28;19927;-50
2022/01/10 07:54:59;;;;;;;;;;;23.00;25.90;;;;;;5121161;28;19924;-48
2022/01/10 07:57:25;;;;;;;;;;;22.90;26.00;;;;;;5124037;28;19924;-54
2022/01/10 07:59:51;;;;;;;;;;;22.90;26.00;;;;;;5104840;28;19923;-48
2022/01/10 08:02:17;;;;;;;;;;;23.00;25.90;;;;;;5101228;28;19937;-46
2022/01/10 08:04:42;;;;;;;;;;;23.00;25.90;;;;;;5125854;28;19975;-52
2022/01/10 08:07:09;;;;;;;;;;;23.10;25.80;;;;;;5119414;28;19930;-47
2022/01/10 08:09:34;;;;;;;;;;;23.00;25.80;;;;;;5120997;28;20443;-46
2022/01/10 08:12:00;;;;;;;;;;;23.20;25.60;;;;;;5126186;28;19931;-46
2022/01/10 08:14:27;;;;;;;;;;;23.20;25.70;;;;;;5120727;28;19932;-49
2022/01/10 08:16:53;;;;;;;;;;;23.20;25.60;;;;;;5121280;28;19928;-53
2022/01/10 08:19:18;;;;;;;;;;;23.30;25.60;;;;;;5126346;28;19930;-54
2022/01/10 08:21:44;;;;;;;;;;;22.90;25.90;;;;;;5120905;28;20378;-49
2022/01/10 08:24:10;;;;;;;;;;;22.90;26.00;;;;;;5124037;28;20318;-51
2022/01/10 08:26:36;;;;;;;;;;;22.80;26.10;;;;;;5120604;28;20004;-52
2022/01/10 08:29:01;;;;;;;;;;;22.90;26.00;;;;;;5120773;28;20362;-49
2022/01/10 08:31:27;;;;;;;;;;;23.00;25.90;;;;;;5126106;28;19931;-51
2022/01/10 08:33:53;;;;;;;;;;;23.00;25.90;;;;;;5120368;28;20385;-50
2022/01/10 08:36:19;;;;;;;;;;;22.90;26.00;;;;;;5120730;28;19927;-50
2022/01/10 08:38:45;;;;;;;;;;;22.90;26.00;;;;;;5124905;27;20301;-49
2022/01/10 08:41:10;;;;;;;;;;;22.90;25.90;;;;;;5120579;28;19927;-51
2022/01/10 08:43:36;;;;;;;;;;;22.90;25.80;;;;;;5123849;28;19924;-49
2022/01/10 08:46:02;;;;;;;;;;;23.00;25.80;;;;;;5120502;28;19928;-51
2022/01/10 08:48:28;;;;;;;;;;;22.90;25.90;;;;;;5120214;28;19931;-48
2022/01/10 08:50:54;;;;;;;;;;;23.00;25.80;;;;;;5125609;28;20393;-51
2022/01/10 08:53:19;;;;;;;;;;;23.00;25.80;;;;;;5101834;28;19991;-52
2022/01/10 08:55:47;;;;;;;;;;;23.00;25.80;;;;;;5120475;28;20266;-49
2022/01/10 08:58:13;;;;;;;;;;;23.00;25.80;;;;;;5126160;28;19923;-47
2022/01/10 09:00:39;;;;;;;;;;;23.00;25.90;;;;;;5118750;28;20010;-53
2022/01/10 09:03:05;;;;;;;;;;;23.10;25.80;;;;;;5120888;28;20020;-47
2022/01/10 09:05:32;;;;;;;;;;;23.10;25.80;;;;;;5120155;28;19931;-51
2022/01/10 09:07:58;;;;;;;;;;;23.10;25.80;;;;;;5119838;28;19929;-47
2022/01/10 09:10:27;;;;;;;;;;;23.20;25.70;;;;;;5125214;28;19931;-52
2022/01/10 09:12:53;;;;;;;;;;;23.00;25.90;;;;;;5120271;28;20011;-50
2022/01/10 09:15:19;;;;;;;;;;;23.00;25.90;;;;;;5120324;28;20020;-48
2022/01/10 09:17:45;;;;;;;;;;;23.00;25.80;;;;;;5125538;28;19927;-47
2022/01/10 09:20:10;;;;;;;;;;;23.00;25.70;;;;;;5117906;28;19927;-48
2022/01/10 09:22:36;;;;;;;;;;;23.20;25.70;;;;;;5120486;28;19927;-62
2022/01/10 09:25:02;;;;;;;;;;;23.10;25.80;;;;;;5123091;28;19931;-53
2022/01/10 09:27:28;;;;;;;;;;;22.70;26.20;;;;;;5119959;28;19923;-52
2022/01/10 09:29:54;;;;;;;;;;;22.80;26.10;;;;;;5124921;28;19932;-50
2022/01/10 09:32:20;;;;;;;;;;;22.80;26.10;;;;;;5120006;28;19923;-49
2022/01/10 09:34:45;;;;;;;;;;;22.70;26.10;;;;;;5101443;28;20267;-53
2022/01/10 09:37:11;;;;;;;;;;;22.70;26.20;;;;;;5124717;28;19928;-51
2022/01/10 09:39:37;;;;;;;;;;;22.60;26.30;;;;;;5118297;28;19975;-50
2022/01/10 09:42:03;;;;;;;;;;;22.70;26.30;;;;;;5120314;28;19975;-57
2022/01/10 09:44:29;;;;;;;;;;;22.70;26.20;;;;;;5125019;28;20108;-48
2022/01/10 09:46:54;;;;;;;;;;;22.70;26.30;;;;;;5119478;28;19923;-48
2022/01/10 09:49:20;;;;;;;;;;;22.80;26.20;;;;;;5106664;27;19923;-48
2022/01/10 09:51:46;;;;;;;;;;;22.70;26.20;;;;;;5122711;28;19991;-50
2022/01/10 09:54:12;;;;;;;;;;;22.70;26.20;;;;;;5105116;28;20525;-49
2022/01/10 09:56:39;;;;;;;;;;;22.80;26.10;;;;;;5126402;28;20475;-49
2022/01/10 09:59:04;;;;;;;;;;;22.80;26.20;;;;;;5122996;28;20371;-49
2022/01/10 10:01:30;;;;;;;;;;;22.70;26.20;;;;;;5123056;28;19975;-53
2022/01/10 10:03:59;;;;;;;;;;;22.80;26.10;;;;;;5128477;28;19928;-54
2022/01/10 10:06:25;;;;;;;;;;;22.80;26.20;;;;;;5122801;28;19946;-51
2022/01/10 10:08:51;;;;;;;;;;;22.80;26.10;;;;;;5128505;28;19988;-50
2022/01/10 10:11:16;;;;;;;;;;;22.80;26.20;;;;;;5123016;28;19927;-48
2022/01/10 10:13:44;;;;;;;;;;;22.80;26.20;;;;;;5122892;28;20294;-50
2022/01/10 10:16:14;;;;;;;;;;;22.80;26.30;;;;;;5126125;28;19923;-50
2022/01/10 10:18:40;;;;;;;;;;;22.90;26.20;;;;;;5122673;28;19979;-48
2022/01/10 10:21:13;;;;;;;;;;;22.80;26.20;;;;;;5122393;28;20291;-51
2022/01/10 10:23:40;;;;;;;;;;;22.80;26.20;;;;;;5127905;28;19927;-49
2022/01/10 10:26:06;;;;;;;;;;;22.90;26.00;;;;;;5122400;28;19933;-50
2022/01/10 10:28:32;;;;;;;;;;;22.80;26.10;;;;;;5123048;28;19927;-51
2022/01/10 10:30:58;;;;;;;;;;;22.90;26.00;;;;;;5128475;28;19934;-51
2022/01/10 10:33:26;;;;;;;;;;;22.80;26.00;;;;;;5120210;28;19923;-49
2022/01/10 10:35:56;;;;;;;;;;;22.90;25.90;;;;;;5127998;28;20301;-50
2022/01/10 10:38:21;;;;;;;;;;;22.90;25.90;;;;;;5122552;28;19996;-48
2022/01/10 10:40:47;;;;;;;;;;;22.90;25.90;;;;;;5122301;28;20443;-51
2022/01/10 10:43:13;;;;;;;;;;;22.80;26.00;;;;;;5127687;28;19924;-51
2022/01/10 10:45:39;;;;;;;;;;;22.90;26.00;;;;;;5122256;28;19951;-49
2022/01/10 10:48:06;;;;;;;;;;;23.00;26.00;;;;;;5122432;28;20012;-49
2022/01/10 10:50:43;;;;;;;;;;;22.90;25.90;;;;;;5107790;28;19928;-48
2022/01/10 10:53:09;;;;;;;;;;;22.90;26.00;;;;;;5101822;28;19985;-48
2022/01/10 10:55:36;;;;;;;;;;;22.90;26.00;;;;;;5123142;28;19934;-55
2022/01/10 10:58:02;;;;;;;;;;;22.90;25.90;;;;;;5127588;28;19923;-49
2022/01/10 11:00:28;;;;;;;;;;;23.00;25.90;;;;;;5122248;28;20003;-49
2022/01/10 11:02:54;;;;;;;;;;;23.00;25.80;;;;;;5126125;27;20306;-48
2022/01/10 11:05:19;;;;;;;;;;;22.90;25.90;;;;;;5122075;28;19927;-50
2022/01/10 11:07:45;;;;;;;;;;;23.00;25.70;;;;;;5122114;28;19927;-49
2022/01/10 11:10:11;;;;;;;;;;;23.00;25.70;;;;;;5125227;28;20329;-48
2022/01/10 11:12:38;;;;;;;;;;;22.90;25.80;;;;;;5121792;28;19968;-49
2022/01/10 11:15:04;;;;;;;;;;;23.00;25.80;;;;;;5103707;28;20464;-49
2022/01/10 11:17:29;;;;;;;;;;;23.10;25.70;;;;;;5126859;28;20002;-46
2022/01/10 11:20:08;;;;;;;;;;;23.00;25.70;;;;;;5102422;28;20019;-49
2022/01/10 11:22:36;;;;;;;;;;;23.10;25.70;;;;;;5125412;28;19923;-59
2022/01/10 11:25:03;;;;;;;;;;;23.00;25.80;;;;;;5106187;28;19924;-51
2022/01/10 11:27:29;;;;;;;;;;;23.00;25.80;;;;;;5121617;28;19931;-50
2022/01/10 11:29:57;;;;;;;;;;;23.00;25.70;;;;;;5124951;28;19927;-50
2022/01/10 11:32:42;;;;;;;;;;;23.00;25.70;;;;;;5103312;28;20014;-48
2022/01/10 11:35:07;;;;;;;;;;;23.10;25.50;;;;;;5121507;28;19923;-49
2022/01/10 11:37:33;;;;;;;;;;;23.00;25.50;;;;;;5127019;28;19965;-46
2022/01/10 11:39:59;;;;;;;;;;;23.10;25.40;;;;;;5121332;28;19927;-45
2022/01/10 11:42:25;;;;;;;;;;;23.20;25.40;;;;;;5103473;28;19931;-53
2022/01/10 11:45:10;;;;;;;;;;;23.00;25.50;;;;;;5126938;28;20461;-52
2022/01/10 11:48:11;;;;;;;;;;;22.80;25.70;;;;;;5100666;28;20385;-51
2022/01/10 11:50:40;;;;;;;;;;;22.80;25.70;;;;;;5121395;28;19930;-52
2022/01/10 11:53:05;;;;;;;;;;;22.80;25.70;;;;;;5126777;28;19937;-49
2022/01/10 11:55:38;;;;;;;;;;;22.80;25.60;;;;;;5121164;28;19932;-53
2022/01/10 11:58:24;;;;;;;;;;;22.80;25.60;;;;;;5102433;28;20339;-51
2022/01/10 12:00:51;;;;;;;;;;;22.80;25.50;;;;;;5126689;28;19931;-52
2022/01/10 12:03:20;;;;;;;;;;;22.80;25.50;;;;;;5121134;28;19932;-52
2022/01/10 12:05:46;;;;;;;;;;;22.80;25.50;;;;;;5119157;28;19945;-52
2022/01/10 12:08:12;;;;;;;;;;;22.90;25.60;;;;;;5126422;28;20162;-51
2022/01/10 12:10:38;;;;;;;;;;;22.90;25.50;;;;;;5120939;28;20363;-52
2022/01/10 12:13:05;;;;;;;;;;;22.90;25.50;;;;;;5101529;28;19923;-51
2022/01/10 12:15:32;;;;;;;;;;;23.00;25.40;;;;;;5126148;28;20368;-49
2022/01/10 12:17:58;;;;;;;;;;;22.80;25.70;;;;;;5120890;28;20416;-50
2022/01/10 12:20:23;;;;;;;;;;;23.00;25.50;;;;;;5126469;28;19927;-49
2022/01/10 12:23:00;;;;;;;;;;;23.00;25.40;;;;;;5120509;28;20018;-48
2022/01/10 12:25:26;;;;;;;;;;;23.00;25.40;;;;;;5118792;28;19923;-48
2022/01/10 12:27:54;;;;;;;;;;;23.00;25.40;;;;;;5126159;28;20031;-48
2022/01/10 12:30:20;;;;;;;;;;;23.10;25.30;;;;;;5120612;28;19931;-52
2022/01/10 12:32:46;;;;;;;;;;;23.10;25.30;;;;;;5120423;28;19924;-51
2022/01/10 12:35:12;;;;;;;;;;;23.10;25.40;;;;;;5125900;28;19966;-49
2022/01/10 12:37:37;;;;;;;;;;;23.10;25.40;;;;;;5120560;28;19923;-55
2022/01/10 12:40:04;;;;;;;;;;;23.20;25.30;;;;;;5122673;28;19924;-58
2022/01/10 12:42:30;;;;;;;;;;;23.00;25.40;;;;;;5122533;28;19979;-54
2022/01/10 12:44:58;;;;;;;;;;;23.10;25.40;;;;;;5120339;28;19927;-53
2022/01/10 12:47:24;;;;;;;;;;;23.00;25.50;;;;;;5125686;28;19923;-49
2022/01/10 12:49:51;;;;;;;;;;;23.10;25.50;;;;;;5120450;28;19931;-51
2022/01/10 12:52:19;;;;;;;;;;;23.10;25.60;;;;;;5119705;28;21201;-53
2022/01/10 12:54:44;;;;;;;;;;;22.90;25.70;;;;;;5125720;28;19924;-50
2022/01/10 12:57:10;;;;;;;;;;;23.00;25.70;;;;;;5120375;28;20249;-51
2022/01/10 12:59:37;;;;;;;;;;;23.10;25.60;;;;;;5120462;28;20189;-48
2022/01/10 13:02:03;;;;;;;;;;;23.10;25.60;;;;;;5123514;28;20002;-63
2022/01/10 13:04:30;;;;;;;;;;;23.20;25.50;;;;;;5120492;28;19927;-53
2022/01/10 13:06:56;;;;;;;;;;;22.70;26.10;;;;;;5125633;28;19934;-51
2022/01/10 13:09:21;;;;;;;;;;;22.80;25.90;;;;;;5100903;28;19943;-51
2022/01/10 13:11:51;;;;;;;;;;;23.00;25.70;;;;;;5120141;28;19930;-52
2022/01/10 13:14:18;;;;;;;;;;;22.90;25.70;;;;;;5125925;28;19933;-50
2022/01/10 13:16:44;;;;;;;;;;;23.00;25.60;;;;;;5099861;28;20048;-50
2022/01/10 13:19:10;;;;;;;;;;;23.00;25.60;;;;;;5118794;28;19975;-53
2022/01/10 13:21:39;;;;;;;;;;;23.00;25.70;;;;;;5124796;28;19928;-52
2022/01/10 13:24:06;;;;;;;;;;;23.00;25.60;;;;;;5119815;27;19923;-49
2022/01/10 13:26:31;;;;;;;;;;;23.10;25.50;;;;;;5105528;28;20339;-54
2022/01/10 13:28:57;;;;;;;;;;;23.10;25.50;;;;;;5109308;28;19923;-49
2022/01/10 13:31:43;;;;;;;;;;;23.10;25.60;;;;;;5123420;28;20298;-50
2022/01/10 13:34:23;;;;;;;;;;;23.00;25.70;;;;;;5127337;28;19967;-58
2022/01/10 13:36:49;;;;;;;;;;;23.20;25.60;;;;;;5128781;28;19923;-50
2022/01/10 13:39:18;;;;;;;;;;;23.10;25.70;;;;;;5121401;28;19924;-50
2022/01/10 13:41:59;;;;;;;;;;;23.00;25.80;;;;;;5128846;28;20026;-51
2022/01/10 13:44:25;;;;;;;;;;;23.20;25.70;;;;;;5127040;28;19931;-49
2022/01/10 13:47:05;;;;;;;;;;;23.10;25.70;;;;;;5123170;28;19946;-52
2022/01/10 13:49:31;;;;;;;;;;;23.10;25.70;;;;;;5128566;28;19928;-53
2022/01/10 13:52:10;;;;;;;;;;;23.00;25.80;;;;;;5123212;28;20838;-49
2022/01/10 13:54:35;;;;;;;;;;;23.10;25.70;;;;;;5123230;28;19930;-48
2022/01/10 13:57:14;;;;;;;;;;;23.00;25.90;;;;;;5126301;28;19924;-53
2022/01/10 13:59:39;;;;;;;;;;;23.00;25.90;;;;;;5123371;28;20020;-51
2022/01/10 14:02:05;;;;;;;;;;;23.00;25.90;;;;;;5104845;28;20077;-50
2022/01/10 14:04:32;;;;;;;;;;;22.90;26.00;;;;;;5128239;28;19972;-51
2022/01/10 14:06:58;;;;;;;;;;;23.00;25.90;;;;;;5103564;28;19931;-52
2022/01/10 14:09:27;;;;;;;;;;;22.90;26.00;;;;;;5123085;28;20398;-51
2022/01/10 14:11:54;;;;;;;;;;;23.00;25.90;;;;;;5128549;28;19923;-48
2022/01/10 14:14:19;;;;;;;;;;;23.10;25.80;;;;;;5121929;28;20509;-51
2022/01/10 14:16:49;;;;;;;;;;;23.10;25.80;;;;;;5125271;28;19932;-57
2022/01/10 14:19:15;;;;;;;;;;;22.90;26.10;;;;;;5091637;28;19932;-52
2022/01/10 14:21:40;;;;;;;;;;;22.90;26.10;;;;;;5122340;28;20023;-51